sensor_id;sensor_type;location;lat;lon;timestamp;P1;durP1;ratioP1;P2;durP2;ratioP2
26113;SDS011;13966;48.828;9.064;2022-11-18T00:01:25;2.03;;;0.80;;
26113;SDS011;13966;48.828;9.064;2022-11-18T00:03:51;2.10;;;0.60;;
26113;SDS011;13966;48.828;9.064;2022-11-18T00:06:18;1.73;;;0.77;;
26113;SDS011;13966;48.828;9.064;2022-11-18T00:08:45;1.05;;;0.60;;
26113;SDS011;13966;48.828;9.064;2022-11-18T00:11:19;1.17;;;0.60;;
26113;SDS011;13966;48.828;9.064;2022-11-18T00:14:04;0.80;;;0.80;;
26113;SDS011;13966;48.828;9.064;2022-11-18T00:16:43;1.52;;;0.80;;
26113;SDS011;13966;48.828;9.064;2022-11-18T00:19:09;1.83;;;0.82;;
26113;SDS011;13966;48.828;9.064;2022-11-18T00:21:35;2.15;;;0.98;;
26113;SDS011;13966;48.828;9.064;2022-11-18T00:24:01;1.70;;;0.60;;
26113;SDS011;13966;48.828;9.064;2022-11-18T00:26:27;0.82;;;0.60;;
26113;SDS011;13966;48.828;9.064;2022-11-18T00:28:53;2.15;;;0.57;;
26113;SDS011;13966;48.828;9.064;2022-11-18T00:31:19;3.67;;;0.95;;
26113;SDS011;13966;48.828;9.064;2022-11-18T00:33:45;3.00;;;0.90;;
26113;SDS011;13966;48.828;9.064;2022-11-18T00:36:11;1.48;;;0.80;;
26113;SDS011;13966;48.828;9.064;2022-11-18T00:38:38;2.13;;;0.90;;
26113;SDS011;13966;48.828;9.064;2022-11-18T00:41:10;2.38;;;1.05;;
26113;SDS011;13966;48.828;9.064;2022-11-18T00:43:37;2.50;;;1.02;;
26113;SDS011;13966;48.828;9.064;2022-11-18T00:46:03;3.78;;;1.10;;
26113;SDS011;13966;48.828;9.064;2022-11-18T00:48:30;3.95;;;0.90;;
26113;SDS011;13966;48.828;9.064;2022-11-18T00:50:56;1.73;;;1.00;;
26113;SDS011;13966;48.828;9.064;2022-11-18T00:53:23;2.75;;;0.90;;
26113;SDS011;13966;48.828;9.064;2022-11-18T00:55:50;2.75;;;0.93;;
26113;SDS011;13966;48.828;9.064;2022-11-18T00:58:16;3.75;;;1.10;;
26113;SDS011;13966;48.828;9.064;2022-11-18T01:00:46;2.15;;;0.90;;
26113;SDS011;13966;48.828;9.064;2022-11-18T01:03:12;6.57;;;1.50;;
26113;SDS011;13966;48.828;9.064;2022-11-18T01:05:38;11.05;;;1.38;;
26113;SDS011;13966;48.828;9.064;2022-11-18T01:08:05;1.85;;;0.90;;
26113;SDS011;13966;48.828;9.064;2022-11-18T01:10:31;3.17;;;1.30;;
26113;SDS011;13966;48.828;9.064;2022-11-18T01:12:57;4.18;;;0.82;;
26113;SDS011;13966;48.828;9.064;2022-11-18T01:15:42;2.88;;;1.15;;
26113;SDS011;13966;48.828;9.064;2022-11-18T01:18:09;4.38;;;1.23;;
26113;SDS011;13966;48.828;9.064;2022-11-18T01:20:35;3.78;;;1.50;;
26113;SDS011;13966;48.828;9.064;2022-11-18T01:23:01;2.92;;;1.13;;
26113;SDS011;13966;48.828;9.064;2022-11-18T01:25:28;3.20;;;1.35;;
26113;SDS011;13966;48.828;9.064;2022-11-18T01:27:54;2.72;;;1.10;;
26113;SDS011;13966;48.828;9.064;2022-11-18T01:30:21;4.78;;;1.42;;
26113;SDS011;13966;48.828;9.064;2022-11-18T01:32:47;4.10;;;1.25;;
26113;SDS011;13966;48.828;9.064;2022-11-18T01:35:13;3.95;;;1.20;;
26113;SDS011;13966;48.828;9.064;2022-11-18T01:37:39;2.55;;;1.20;;
26113;SDS011;13966;48.828;9.064;2022-11-18T01:40:05;4.18;;;1.20;;
26113;SDS011;13966;48.828;9.064;2022-11-18T01:42:32;2.50;;;1.30;;
26113;SDS011;13966;48.828;9.064;2022-11-18T01:47:41;3.03;;;1.23;;
26113;SDS011;13966;48.828;9.064;2022-11-18T01:50:08;1.33;;;0.90;;
26113;SDS011;13966;48.828;9.064;2022-11-18T01:52:34;2.65;;;1.02;;
26113;SDS011;13966;48.828;9.064;2022-11-18T01:55:03;2.72;;;1.00;;
26113;SDS011;13966;48.828;9.064;2022-11-18T01:57:30;2.80;;;1.10;;
26113;SDS011;13966;48.828;9.064;2022-11-18T01:59:57;4.00;;;1.13;;
26113;SDS011;13966;48.828;9.064;2022-11-18T02:02:26;3.58;;;1.00;;
26113;SDS011;13966;48.828;9.064;2022-11-18T02:04:55;2.28;;;1.00;;
26113;SDS011;13966;48.828;9.064;2022-11-18T02:07:21;1.50;;;0.95;;
26113;SDS011;13966;48.828;9.064;2022-11-18T02:09:47;2.15;;;1.00;;
26113;SDS011;13966;48.828;9.064;2022-11-18T02:12:16;2.58;;;0.95;;
26113;SDS011;13966;48.828;9.064;2022-11-18T02:14:42;2.97;;;0.80;;
26113;SDS011;13966;48.828;9.064;2022-11-18T02:17:26;3.97;;;1.23;;
26113;SDS011;13966;48.828;9.064;2022-11-18T02:27:57;2.28;;;1.00;;
26113;SDS011;13966;48.828;9.064;2022-11-18T02:30:29;1.75;;;0.90;;
26113;SDS011;13966;48.828;9.064;2022-11-18T02:33:00;2.67;;;1.00;;
26113;SDS011;13966;48.828;9.064;2022-11-18T02:38:02;2.25;;;1.23;;
26113;SDS011;13966;48.828;9.064;2022-11-18T02:40:33;1.27;;;0.70;;
26113;SDS011;13966;48.828;9.064;2022-11-18T02:43:04;2.17;;;1.20;;
26113;SDS011;13966;48.828;9.064;2022-11-18T02:45:31;3.90;;;0.93;;
26113;SDS011;13966;48.828;9.064;2022-11-18T02:47:59;2.83;;;0.95;;
26113;SDS011;13966;48.828;9.064;2022-11-18T02:50:27;2.17;;;0.90;;
26113;SDS011;13966;48.828;9.064;2022-11-18T02:52:56;2.65;;;0.90;;
26113;SDS011;13966;48.828;9.064;2022-11-18T02:55:22;1.88;;;1.08;;
26113;SDS011;13966;48.828;9.064;2022-11-18T02:57:50;2.13;;;1.10;;
26113;SDS011;13966;48.828;9.064;2022-11-18T03:00:16;3.03;;;1.10;;
26113;SDS011;13966;48.828;9.064;2022-11-18T03:02:43;2.88;;;1.20;;
26113;SDS011;13966;48.828;9.064;2022-11-18T03:05:12;2.25;;;1.52;;
26113;SDS011;13966;48.828;9.064;2022-11-18T03:07:41;3.75;;;2.00;;
26113;SDS011;13966;48.828;9.064;2022-11-18T03:10:08;2.83;;;1.42;;
26113;SDS011;13966;48.828;9.064;2022-11-18T03:17:41;2.60;;;1.30;;
26113;SDS011;13966;48.828;9.064;2022-11-18T03:22:54;5.95;;;1.60;;
26113;SDS011;13966;48.828;9.064;2022-11-18T03:27:53;4.65;;;1.67;;
26113;SDS011;13966;48.828;9.064;2022-11-18T03:30:21;4.90;;;1.30;;
26113;SDS011;13966;48.828;9.064;2022-11-18T03:32:52;5.15;;;1.38;;
26113;SDS011;13966;48.828;9.064;2022-11-18T03:35:22;3.45;;;1.30;;
26113;SDS011;13966;48.828;9.064;2022-11-18T03:37:49;4.47;;;1.30;;
26113;SDS011;13966;48.828;9.064;2022-11-18T03:40:17;3.58;;;1.17;;
26113;SDS011;13966;48.828;9.064;2022-11-18T03:42:46;6.32;;;1.38;;
26113;SDS011;13966;48.828;9.064;2022-11-18T03:45:24;4.65;;;1.27;;
26113;SDS011;13966;48.828;9.064;2022-11-18T03:47:53;4.93;;;1.20;;
26113;SDS011;13966;48.828;9.064;2022-11-18T03:50:21;3.97;;;1.10;;
26113;SDS011;13966;48.828;9.064;2022-11-18T03:52:48;4.43;;;1.15;;
26113;SDS011;13966;48.828;9.064;2022-11-18T03:55:16;4.38;;;1.10;;
26113;SDS011;13966;48.828;9.064;2022-11-18T04:00:12;4.50;;;1.20;;
26113;SDS011;13966;48.828;9.064;2022-11-18T04:02:39;2.60;;;1.20;;
26113;SDS011;13966;48.828;9.064;2022-11-18T04:05:05;5.50;;;1.50;;
26113;SDS011;13966;48.828;9.064;2022-11-18T04:10:12;2.67;;;1.23;;
26113;SDS011;13966;48.828;9.064;2022-11-18T04:12:43;6.50;;;1.63;;
26113;SDS011;13966;48.828;9.064;2022-11-18T04:15:10;3.05;;;1.50;;
26113;SDS011;13966;48.828;9.064;2022-11-18T04:17:36;3.30;;;1.40;;
26113;SDS011;13966;48.828;9.064;2022-11-18T04:20:05;2.60;;;1.23;;
26113;SDS011;13966;48.828;9.064;2022-11-18T04:22:31;4.22;;;1.17;;
26113;SDS011;13966;48.828;9.064;2022-11-18T04:24:57;3.67;;;1.40;;
26113;SDS011;13966;48.828;9.064;2022-11-18T04:27:23;1.75;;;1.00;;
26113;SDS011;13966;48.828;9.064;2022-11-18T04:29:49;3.25;;;1.10;;
26113;SDS011;13966;48.828;9.064;2022-11-18T04:32:15;2.20;;;1.13;;
26113;SDS011;13966;48.828;9.064;2022-11-18T04:34:41;4.00;;;1.33;;
26113;SDS011;13966;48.828;9.064;2022-11-18T04:37:07;2.63;;;1.17;;
26113;SDS011;13966;48.828;9.064;2022-11-18T04:39:33;4.35;;;0.90;;
26113;SDS011;13966;48.828;9.064;2022-11-18T04:41:59;2.55;;;1.20;;
26113;SDS011;13966;48.828;9.064;2022-11-18T04:44:26;2.83;;;1.17;;
26113;SDS011;13966;48.828;9.064;2022-11-18T04:46:53;2.88;;;1.15;;
26113;SDS011;13966;48.828;9.064;2022-11-18T04:49:19;1.70;;;0.70;;
26113;SDS011;13966;48.828;9.064;2022-11-18T04:51:45;1.58;;;0.88;;
26113;SDS011;13966;48.828;9.064;2022-11-18T04:54:12;1.50;;;0.82;;
26113;SDS011;13966;48.828;9.064;2022-11-18T04:56:38;1.80;;;0.60;;
26113;SDS011;13966;48.828;9.064;2022-11-18T04:59:05;0.95;;;0.60;;
26113;SDS011;13966;48.828;9.064;2022-11-18T05:01:31;1.45;;;0.82;;
26113;SDS011;13966;48.828;9.064;2022-11-18T05:04:01;0.57;;;0.50;;
26113;SDS011;13966;48.828;9.064;2022-11-18T05:06:28;0.70;;;0.70;;
26113;SDS011;13966;48.828;9.064;2022-11-18T05:08:55;1.10;;;0.70;;
26113;SDS011;13966;48.828;9.064;2022-11-18T05:11:21;1.17;;;0.80;;
26113;SDS011;13966;48.828;9.064;2022-11-18T05:14:06;4.10;;;1.10;;
26113;SDS011;13966;48.828;9.064;2022-11-18T05:16:32;1.20;;;0.82;;
26113;SDS011;13966;48.828;9.064;2022-11-18T05:18:58;0.98;;;0.88;;
26113;SDS011;13966;48.828;9.064;2022-11-18T05:21:26;1.77;;;1.00;;
26113;SDS011;13966;48.828;9.064;2022-11-18T05:23:52;2.03;;;1.20;;
26113;SDS011;13966;48.828;9.064;2022-11-18T05:26:18;1.60;;;1.00;;
26113;SDS011;13966;48.828;9.064;2022-11-18T05:28:44;3.80;;;1.05;;
26113;SDS011;13966;48.828;9.064;2022-11-18T05:31:10;2.13;;;1.05;;
26113;SDS011;13966;48.828;9.064;2022-11-18T05:33:37;1.50;;;1.35;;
26113;SDS011;13966;48.828;9.064;2022-11-18T05:36:04;2.45;;;1.10;;
26113;SDS011;13966;48.828;9.064;2022-11-18T05:38:31;2.35;;;1.15;;
26113;SDS011;13966;48.828;9.064;2022-11-18T05:40:57;2.35;;;1.45;;
26113;SDS011;13966;48.828;9.064;2022-11-18T05:43:23;1.58;;;1.13;;
26113;SDS011;13966;48.828;9.064;2022-11-18T05:45:49;1.90;;;1.40;;
26113;SDS011;13966;48.828;9.064;2022-11-18T05:48:16;1.77;;;1.10;;
26113;SDS011;13966;48.828;9.064;2022-11-18T05:50:44;1.38;;;0.90;;
26113;SDS011;13966;48.828;9.064;2022-11-18T05:53:10;3.05;;;0.90;;
26113;SDS011;13966;48.828;9.064;2022-11-18T05:55:41;1.38;;;1.08;;
26113;SDS011;13966;48.828;9.064;2022-11-18T05:58:09;1.75;;;1.10;;
26113;SDS011;13966;48.828;9.064;2022-11-18T06:00:35;2.95;;;2.65;;
26113;SDS011;13966;48.828;9.064;2022-11-18T06:03:01;2.85;;;1.73;;
26113;SDS011;13966;48.828;9.064;2022-11-18T06:05:29;4.03;;;2.75;;
26113;SDS011;13966;48.828;9.064;2022-11-18T06:07:55;4.32;;;3.35;;
26113;SDS011;13966;48.828;9.064;2022-11-18T06:10:23;3.65;;;2.53;;
26113;SDS011;13966;48.828;9.064;2022-11-18T06:12:51;2.22;;;2.03;;
26113;SDS011;13966;48.828;9.064;2022-11-18T06:15:32;3.05;;;1.92;;
26113;SDS011;13966;48.828;9.064;2022-11-18T06:18:10;3.58;;;1.67;;
26113;SDS011;13966;48.828;9.064;2022-11-18T06:20:37;1.85;;;1.50;;
26113;SDS011;13966;48.828;9.064;2022-11-18T06:23:04;5.15;;;1.90;;
26113;SDS011;13966;48.828;9.064;2022-11-18T06:25:30;2.28;;;1.20;;
26113;SDS011;13966;48.828;9.064;2022-11-18T06:27:58;3.88;;;2.17;;
26113;SDS011;13966;48.828;9.064;2022-11-18T06:30:25;10.20;;;4.13;;
26113;SDS011;13966;48.828;9.064;2022-11-18T06:32:51;12.45;;;5.32;;
26113;SDS011;13966;48.828;9.064;2022-11-18T06:35:17;8.52;;;4.47;;
26113;SDS011;13966;48.828;9.064;2022-11-18T06:37:43;7.57;;;4.28;;
26113;SDS011;13966;48.828;9.064;2022-11-18T06:40:11;5.05;;;3.10;;
26113;SDS011;13966;48.828;9.064;2022-11-18T06:42:37;3.50;;;2.70;;
26113;SDS011;13966;48.828;9.064;2022-11-18T06:45:21;3.13;;;2.05;;
26113;SDS011;13966;48.828;9.064;2022-11-18T06:47:47;2.28;;;1.75;;
26113;SDS011;13966;48.828;9.064;2022-11-18T06:50:13;2.42;;;1.70;;
26113;SDS011;13966;48.828;9.064;2022-11-18T06:52:39;2.08;;;1.67;;
26113;SDS011;13966;48.828;9.064;2022-11-18T06:55:05;1.60;;;1.30;;
26113;SDS011;13966;48.828;9.064;2022-11-18T06:57:32;2.42;;;1.90;;
26113;SDS011;13966;48.828;9.064;2022-11-18T06:59:58;3.33;;;2.10;;
26113;SDS011;13966;48.828;9.064;2022-11-18T07:02:24;6.10;;;2.30;;
26113;SDS011;13966;48.828;9.064;2022-11-18T07:04:50;4.50;;;2.00;;
26113;SDS011;13966;48.828;9.064;2022-11-18T07:07:16;4.03;;;2.20;;
26113;SDS011;13966;48.828;9.064;2022-11-18T07:09:45;2.30;;;2.00;;
26113;SDS011;13966;48.828;9.064;2022-11-18T07:12:11;5.05;;;2.50;;
26113;SDS011;13966;48.828;9.064;2022-11-18T07:14:37;3.60;;;1.90;;
26113;SDS011;13966;48.828;9.064;2022-11-18T07:17:05;3.70;;;1.88;;
26113;SDS011;13966;48.828;9.064;2022-11-18T07:19:31;4.85;;;2.17;;
26113;SDS011;13966;48.828;9.064;2022-11-18T07:21:58;3.40;;;2.20;;
26113;SDS011;13966;48.828;9.064;2022-11-18T07:24:25;4.68;;;2.22;;
26113;SDS011;13966;48.828;9.064;2022-11-18T07:26:53;4.22;;;2.45;;
26113;SDS011;13966;48.828;9.064;2022-11-18T07:29:19;3.90;;;2.00;;
26113;SDS011;13966;48.828;9.064;2022-11-18T07:31:46;3.45;;;2.00;;
26113;SDS011;13966;48.828;9.064;2022-11-18T07:34:12;4.15;;;2.40;;
26113;SDS011;13966;48.828;9.064;2022-11-18T07:36:38;3.10;;;2.30;;
26113;SDS011;13966;48.828;9.064;2022-11-18T07:39:04;3.45;;;2.20;;
26113;SDS011;13966;48.828;9.064;2022-11-18T07:41:31;2.85;;;2.40;;
26113;SDS011;13966;48.828;9.064;2022-11-18T07:43:58;2.05;;;1.77;;
26113;SDS011;13966;48.828;9.064;2022-11-18T07:46:25;3.63;;;2.70;;
26113;SDS011;13966;48.828;9.064;2022-11-18T07:48:52;2.50;;;1.65;;
26113;SDS011;13966;48.828;9.064;2022-11-18T07:51:19;3.58;;;1.17;;
26113;SDS011;13966;48.828;9.064;2022-11-18T07:53:45;1.30;;;1.20;;
26113;SDS011;13966;48.828;9.064;2022-11-18T07:56:12;3.53;;;1.50;;
26113;SDS011;13966;48.828;9.064;2022-11-18T07:58:38;1.20;;;1.10;;
26113;SDS011;13966;48.828;9.064;2022-11-18T08:01:05;2.10;;;1.67;;
26113;SDS011;13966;48.828;9.064;2022-11-18T08:03:32;2.47;;;1.75;;
26113;SDS011;13966;48.828;9.064;2022-11-18T08:05:58;3.90;;;1.90;;
26113;SDS011;13966;48.828;9.064;2022-11-18T08:08:25;2.78;;;1.88;;
26113;SDS011;13966;48.828;9.064;2022-11-18T08:10:54;2.45;;;1.65;;
26113;SDS011;13966;48.828;9.064;2022-11-18T08:13:21;3.00;;;1.80;;
26113;SDS011;13966;48.828;9.064;2022-11-18T08:15:47;3.35;;;2.13;;
26113;SDS011;13966;48.828;9.064;2022-11-18T08:18:13;4.85;;;3.40;;
26113;SDS011;13966;48.828;9.064;2022-11-18T08:20:39;2.42;;;1.65;;
26113;SDS011;13966;48.828;9.064;2022-11-18T08:23:05;1.17;;;1.02;;
26113;SDS011;13966;48.828;9.064;2022-11-18T08:25:31;1.30;;;0.82;;
26113;SDS011;13966;48.828;9.064;2022-11-18T08:27:57;0.80;;;0.75;;
26113;SDS011;13966;48.828;9.064;2022-11-18T08:30:23;1.05;;;0.80;;
26113;SDS011;13966;48.828;9.064;2022-11-18T08:32:49;1.33;;;0.93;;
26113;SDS011;13966;48.828;9.064;2022-11-18T08:35:15;13.13;;;7.40;;
26113;SDS011;13966;48.828;9.064;2022-11-18T08:37:41;67.07;;;36.15;;
26113;SDS011;13966;48.828;9.064;2022-11-18T08:40:07;30.05;;;16.63;;
26113;SDS011;13966;48.828;9.064;2022-11-18T08:42:33;7.80;;;5.35;;
26113;SDS011;13966;48.828;9.064;2022-11-18T08:45:01;3.03;;;2.40;;
26113;SDS011;13966;48.828;9.064;2022-11-18T08:47:29;2.97;;;1.80;;
26113;SDS011;13966;48.828;9.064;2022-11-18T08:49:55;1.45;;;1.35;;
26113;SDS011;13966;48.828;9.064;2022-11-18T08:52:21;2.35;;;1.70;;
26113;SDS011;13966;48.828;9.064;2022-11-18T08:54:47;1.90;;;1.30;;
26113;SDS011;13966;48.828;9.064;2022-11-18T08:57:13;1.27;;;0.90;;
26113;SDS011;13966;48.828;9.064;2022-11-18T08:59:39;2.17;;;0.73;;
26113;SDS011;13966;48.828;9.064;2022-11-18T09:02:05;0.50;;;0.50;;
26113;SDS011;13966;48.828;9.064;2022-11-18T09:04:31;0.60;;;0.60;;
26113;SDS011;13966;48.828;9.064;2022-11-18T09:06:57;1.08;;;0.82;;
26113;SDS011;13966;48.828;9.064;2022-11-18T09:09:23;1.20;;;0.88;;
26113;SDS011;13966;48.828;9.064;2022-11-18T09:11:49;1.15;;;0.80;;
26113;SDS011;13966;48.828;9.064;2022-11-18T09:14:15;0.88;;;0.80;;
26113;SDS011;13966;48.828;9.064;2022-11-18T09:16:42;1.70;;;1.20;;
26113;SDS011;13966;48.828;9.064;2022-11-18T09:19:08;0.98;;;0.90;;
26113;SDS011;13966;48.828;9.064;2022-11-18T09:21:34;1.67;;;1.20;;
26113;SDS011;13966;48.828;9.064;2022-11-18T09:24:02;1.40;;;1.30;;
26113;SDS011;13966;48.828;9.064;2022-11-18T09:26:29;1.85;;;1.30;;
26113;SDS011;13966;48.828;9.064;2022-11-18T09:28:55;1.60;;;1.27;;
26113;SDS011;13966;48.828;9.064;2022-11-18T09:31:21;3.33;;;2.08;;
26113;SDS011;13966;48.828;9.064;2022-11-18T09:33:47;13.07;;;6.68;;
26113;SDS011;13966;48.828;9.064;2022-11-18T09:36:18;5.60;;;3.72;;
26113;SDS011;13966;48.828;9.064;2022-11-18T09:38:44;9.00;;;6.63;;
26113;SDS011;13966;48.828;9.064;2022-11-18T09:41:34;7.95;;;5.32;;
26113;SDS011;13966;48.828;9.064;2022-11-18T09:46:37;5.20;;;2.95;;
26113;SDS011;13966;48.828;9.064;2022-11-18T09:49:10;2.35;;;1.50;;
26113;SDS011;13966;48.828;9.064;2022-11-18T09:51:43;6.47;;;4.90;;
26113;SDS011;13966;48.828;9.064;2022-11-18T09:54:11;8.75;;;5.63;;
26113;SDS011;13966;48.828;9.064;2022-11-18T09:56:39;7.10;;;5.15;;
26113;SDS011;13966;48.828;9.064;2022-11-18T09:59:05;5.25;;;2.58;;
26113;SDS011;13966;48.828;9.064;2022-11-18T10:01:31;6.03;;;4.03;;
26113;SDS011;13966;48.828;9.064;2022-11-18T10:03:57;2.40;;;2.20;;
26113;SDS011;13966;48.828;9.064;2022-11-18T10:06:27;2.95;;;2.35;;
26113;SDS011;13966;48.828;9.064;2022-11-18T10:24:21;5.95;;;2.58;;
26113;SDS011;13966;48.828;9.064;2022-11-18T10:26:53;7.60;;;3.28;;
26113;SDS011;13966;48.828;9.064;2022-11-18T10:29:19;5.13;;;2.80;;
26113;SDS011;13966;48.828;9.064;2022-11-18T10:32:02;6.03;;;3.20;;
26113;SDS011;13966;48.828;9.064;2022-11-18T10:34:29;3.97;;;2.33;;
26113;SDS011;13966;48.828;9.064;2022-11-18T10:37:03;3.17;;;2.20;;
26113;SDS011;13966;48.828;9.064;2022-11-18T10:39:30;5.30;;;2.17;;
26113;SDS011;13966;48.828;9.064;2022-11-18T10:42:03;4.45;;;1.83;;
26113;SDS011;13966;48.828;9.064;2022-11-18T10:44:31;4.60;;;1.90;;
26113;SDS011;13966;48.828;9.064;2022-11-18T10:49:42;8.13;;;2.03;;
26113;SDS011;13966;48.828;9.064;2022-11-18T10:52:09;4.05;;;2.20;;
26113;SDS011;13966;48.828;9.064;2022-11-18T10:54:36;4.72;;;2.22;;
26113;SDS011;13966;48.828;9.064;2022-11-18T10:57:20;3.35;;;2.10;;
26113;SDS011;13966;48.828;9.064;2022-11-18T10:59:54;3.80;;;2.00;;
26113;SDS011;13966;48.828;9.064;2022-11-18T11:02:33;4.13;;;2.10;;
26113;SDS011;13966;48.828;9.064;2022-11-18T11:05:16;6.40;;;2.60;;
26113;SDS011;13966;48.828;9.064;2022-11-18T11:07:43;4.18;;;2.05;;
26113;SDS011;13966;48.828;9.064;2022-11-18T11:12:37;1.35;;;1.20;;
26113;SDS011;13966;48.828;9.064;2022-11-18T11:23:35;3.88;;;1.70;;
26113;SDS011;13966;48.828;9.064;2022-11-18T11:43:49;5.00;;;3.65;;
26113;SDS011;13966;48.828;9.064;2022-11-18T11:46:18;4.70;;;2.90;;
26113;SDS011;13966;48.828;9.064;2022-11-18T11:54:08;3.38;;;1.35;;
26113;SDS011;13966;48.828;9.064;2022-11-18T12:01:50;3.35;;;1.75;;
26113;SDS011;13966;48.828;9.064;2022-11-18T12:04:30;5.05;;;2.22;;
26113;SDS011;13966;48.828;9.064;2022-11-18T12:06:57;2.40;;;1.67;;
26113;SDS011;13966;48.828;9.064;2022-11-18T12:12:01;4.25;;;2.03;;
26113;SDS011;13966;48.828;9.064;2022-11-18T12:14:31;3.33;;;1.65;;
26113;SDS011;13966;48.828;9.064;2022-11-18T12:17:12;6.80;;;2.65;;
26113;SDS011;13966;48.828;9.064;2022-11-18T12:19:39;4.50;;;1.70;;
26113;SDS011;13966;48.828;9.064;2022-11-18T12:22:05;5.03;;;2.08;;
26113;SDS011;13966;48.828;9.064;2022-11-18T12:24:32;6.03;;;2.53;;
26113;SDS011;13966;48.828;9.064;2022-11-18T12:29:29;5.68;;;2.10;;
26113;SDS011;13966;48.828;9.064;2022-11-18T12:31:57;5.00;;;2.38;;
26113;SDS011;13966;48.828;9.064;2022-11-18T12:39:56;4.30;;;1.85;;
26113;SDS011;13966;48.828;9.064;2022-11-18T12:42:34;4.40;;;1.80;;
26113;SDS011;13966;48.828;9.064;2022-11-18T12:48:04;6.70;;;1.98;;
26113;SDS011;13966;48.828;9.064;2022-11-18T12:50:51;4.90;;;1.63;;
26113;SDS011;13966;48.828;9.064;2022-11-18T12:56:09;5.72;;;2.08;;
26113;SDS011;13966;48.828;9.064;2022-11-18T12:58:35;3.97;;;2.30;;
26113;SDS011;13966;48.828;9.064;2022-11-18T13:01:10;5.18;;;2.58;;
26113;SDS011;13966;48.828;9.064;2022-11-18T13:03:36;5.30;;;1.90;;
26113;SDS011;13966;48.828;9.064;2022-11-18T13:06:06;5.72;;;1.60;;
26113;SDS011;13966;48.828;9.064;2022-11-18T13:08:37;5.13;;;2.30;;
26113;SDS011;13966;48.828;9.064;2022-11-18T13:11:14;2.25;;;1.55;;
26113;SDS011;13966;48.828;9.064;2022-11-18T13:14:00;4.32;;;1.80;;
26113;SDS011;13966;48.828;9.064;2022-11-18T13:16:46;3.50;;;1.38;;
26113;SDS011;13966;48.828;9.064;2022-11-18T13:19:31;4.00;;;1.92;;
26113;SDS011;13966;48.828;9.064;2022-11-18T13:21:58;3.35;;;1.90;;
26113;SDS011;13966;48.828;9.064;2022-11-18T13:24:44;4.13;;;1.95;;
26113;SDS011;13966;48.828;9.064;2022-11-18T13:27:15;4.97;;;2.00;;
26113;SDS011;13966;48.828;9.064;2022-11-18T13:30:04;3.75;;;1.55;;
26113;SDS011;13966;48.828;9.064;2022-11-18T13:32:29;4.38;;;1.75;;
26113;SDS011;13966;48.828;9.064;2022-11-18T13:34:56;3.55;;;1.60;;
26113;SDS011;13966;48.828;9.064;2022-11-18T13:37:24;3.65;;;1.27;;
26113;SDS011;13966;48.828;9.064;2022-11-18T13:39:51;2.67;;;1.55;;
26113;SDS011;13966;48.828;9.064;2022-11-18T13:42:21;4.65;;;1.80;;
26113;SDS011;13966;48.828;9.064;2022-11-18T13:44:51;4.75;;;1.20;;
26113;SDS011;13966;48.828;9.064;2022-11-18T13:47:22;4.30;;;1.42;;
26113;SDS011;13966;48.828;9.064;2022-11-18T13:52:18;2.92;;;1.45;;
26113;SDS011;13966;48.828;9.064;2022-11-18T13:54:45;5.03;;;1.80;;
26113;SDS011;13966;48.828;9.064;2022-11-18T13:57:21;2.72;;;1.17;;
26113;SDS011;13966;48.828;9.064;2022-11-18T13:59:47;2.85;;;1.10;;
26113;SDS011;13966;48.828;9.064;2022-11-18T14:02:14;4.88;;;1.17;;
26113;SDS011;13966;48.828;9.064;2022-11-18T14:04:48;4.43;;;1.60;;
26113;SDS011;13966;48.828;9.064;2022-11-18T14:07:23;3.55;;;1.02;;
26113;SDS011;13966;48.828;9.064;2022-11-18T14:10:09;3.60;;;1.40;;
26113;SDS011;13966;48.828;9.064;2022-11-18T14:12:36;5.82;;;1.40;;
26113;SDS011;13966;48.828;9.064;2022-11-18T14:15:21;2.65;;;1.23;;
26113;SDS011;13966;48.828;9.064;2022-11-18T14:17:49;4.55;;;1.73;;
26113;SDS011;13966;48.828;9.064;2022-11-18T14:20:15;5.22;;;1.95;;
26113;SDS011;13966;48.828;9.064;2022-11-18T14:22:42;3.10;;;1.50;;
26113;SDS011;13966;48.828;9.064;2022-11-18T14:25:16;4.43;;;1.75;;
26113;SDS011;13966;48.828;9.064;2022-11-18T14:27:46;5.10;;;1.90;;
26113;SDS011;13966;48.828;9.064;2022-11-18T14:33:12;5.05;;;1.88;;
26113;SDS011;13966;48.828;9.064;2022-11-18T14:35:39;3.95;;;1.98;;
26113;SDS011;13966;48.828;9.064;2022-11-18T14:38:10;4.65;;;2.20;;
26113;SDS011;13966;48.828;9.064;2022-11-18T14:40:37;3.88;;;2.00;;
26113;SDS011;13966;48.828;9.064;2022-11-18T14:43:03;4.10;;;2.00;;
26113;SDS011;13966;48.828;9.064;2022-11-18T14:45:29;6.80;;;2.53;;
26113;SDS011;13966;48.828;9.064;2022-11-18T14:47:56;3.83;;;2.28;;
26113;SDS011;13966;48.828;9.064;2022-11-18T14:50:22;3.45;;;1.80;;
26113;SDS011;13966;48.828;9.064;2022-11-18T14:52:48;3.08;;;1.50;;
26113;SDS011;13966;48.828;9.064;2022-11-18T14:55:14;5.18;;;1.77;;
26113;SDS011;13966;48.828;9.064;2022-11-18T14:57:40;7.15;;;2.13;;
26113;SDS011;13966;48.828;9.064;2022-11-18T15:00:06;5.85;;;1.60;;
26113;SDS011;13966;48.828;9.064;2022-11-18T15:02:32;8.30;;;2.35;;
26113;SDS011;13966;48.828;9.064;2022-11-18T15:04:58;6.80;;;2.75;;
26113;SDS011;13966;48.828;9.064;2022-11-18T15:07:24;7.40;;;3.05;;
26113;SDS011;13966;48.828;9.064;2022-11-18T15:09:50;8.60;;;2.75;;
26113;SDS011;13966;48.828;9.064;2022-11-18T15:12:16;5.40;;;2.25;;
26113;SDS011;13966;48.828;9.064;2022-11-18T15:14:42;3.83;;;1.75;;
26113;SDS011;13966;48.828;9.064;2022-11-18T15:17:09;4.63;;;2.00;;
26113;SDS011;13966;48.828;9.064;2022-11-18T15:19:35;7.70;;;1.70;;
26113;SDS011;13966;48.828;9.064;2022-11-18T15:22:02;5.68;;;2.28;;
26113;SDS011;13966;48.828;9.064;2022-11-18T15:24:28;6.45;;;2.53;;
26113;SDS011;13966;48.828;9.064;2022-11-18T15:26:54;4.47;;;2.30;;
26113;SDS011;13966;48.828;9.064;2022-11-18T15:29:21;6.07;;;2.55;;
26113;SDS011;13966;48.828;9.064;2022-11-18T15:31:48;7.65;;;3.30;;
26113;SDS011;13966;48.828;9.064;2022-11-18T15:34:14;7.97;;;2.78;;
26113;SDS011;13966;48.828;9.064;2022-11-18T15:36:42;9.07;;;3.33;;
26113;SDS011;13966;48.828;9.064;2022-11-18T15:39:08;10.27;;;3.60;;
26113;SDS011;13966;48.828;9.064;2022-11-18T15:41:35;10.80;;;4.00;;
26113;SDS011;13966;48.828;9.064;2022-11-18T15:44:02;14.40;;;4.63;;
26113;SDS011;13966;48.828;9.064;2022-11-18T15:46:28;12.02;;;4.68;;
26113;SDS011;13966;48.828;9.064;2022-11-18T15:48:55;18.63;;;7.00;;
26113;SDS011;13966;48.828;9.064;2022-11-18T15:51:21;15.70;;;7.03;;
26113;SDS011;13966;48.828;9.064;2022-11-18T15:53:48;14.35;;;6.60;;
26113;SDS011;13966;48.828;9.064;2022-11-18T15:58:40;13.50;;;4.35;;
26113;SDS011;13966;48.828;9.064;2022-11-18T16:01:06;8.65;;;4.50;;
26113;SDS011;13966;48.828;9.064;2022-11-18T16:03:33;9.35;;;5.38;;
26113;SDS011;13966;48.828;9.064;2022-11-18T16:05:59;13.15;;;4.03;;
26113;SDS011;13966;48.828;9.064;2022-11-18T16:08:25;11.05;;;5.43;;
26113;SDS011;13966;48.828;9.064;2022-11-18T16:10:54;8.15;;;4.20;;
26113;SDS011;13966;48.828;9.064;2022-11-18T16:13:39;11.13;;;4.68;;
26113;SDS011;13966;48.828;9.064;2022-11-18T16:16:05;10.98;;;4.53;;
26113;SDS011;13966;48.828;9.064;2022-11-18T16:18:31;8.68;;;3.83;;
26113;SDS011;13966;48.828;9.064;2022-11-18T16:20:57;8.18;;;3.28;;
26113;SDS011;13966;48.828;9.064;2022-11-18T16:23:24;11.88;;;5.20;;
26113;SDS011;13966;48.828;9.064;2022-11-18T16:25:52;10.35;;;5.40;;
26113;SDS011;13966;48.828;9.064;2022-11-18T16:28:18;6.00;;;3.50;;
26113;SDS011;13966;48.828;9.064;2022-11-18T16:30:47;8.70;;;3.00;;
26113;SDS011;13966;48.828;9.064;2022-11-18T16:33:32;7.63;;;2.97;;
26113;SDS011;13966;48.828;9.064;2022-11-18T16:35:58;11.75;;;3.72;;
26113;SDS011;13966;48.828;9.064;2022-11-18T16:38:24;10.55;;;5.10;;
26113;SDS011;13966;48.828;9.064;2022-11-18T16:40:56;10.13;;;5.25;;
26113;SDS011;13966;48.828;9.064;2022-11-18T16:43:23;8.60;;;4.43;;
26113;SDS011;13966;48.828;9.064;2022-11-18T16:45:52;10.13;;;4.22;;